Time;durP1;ratioP1;P1;durP2;ratioP2;P2;SDS_P1;SDS_P2;PMS_P1;PMS_P2;Temp;Humidity;BMP_temperature;BMP_pressure;BME280_temperature;BME280_humidity;BME280_pressure;Samples;Min_cycle;Max_cycle;Signal;HPM_P1;HPM_P2
2021/10/13 00:00:43;;;;;;;36.55;22.33;;;6.90;99.90;;;;;;6245639;23;20047;-93
2021/10/13 00:03:32;;;;;;;39.83;23.33;;;6.80;99.90;;;;;;6226332;23;20032;-94
2021/10/13 00:06:20;;;;;;;41.28;23.13;;;6.80;99.90;;;;;;6226245;23;20031;-93
2021/10/13 00:09:07;;;;;;;35.13;21.55;;;6.80;99.90;;;;;;6250108;23;20110;-91
2021/10/13 00:11:57;;;;;;;34.45;21.25;;;6.90;99.90;;;;;;6245426;23;20031;-93
2021/10/13 00:14:44;;;;;;;39.97;20.75;;;6.90;99.90;;;;;;6245653;23;20465;-92
2021/10/13 00:17:31;;;;;;;33.42;19.77;;;6.80;99.90;;;;;;6222821;23;20109;-91
2021/10/13 00:20:21;;;;;;;34.90;18.83;;;6.80;99.90;;;;;;6243921;23;20031;-91
2021/10/13 00:23:11;;;;;;;34.72;19.92;;;6.80;99.90;;;;;;6245949;23;20055;-93
2021/10/13 00:26:02;;;;;;;34.13;19.45;;;6.70;99.90;;;;;;6249411;23;20074;-91
2021/10/13 00:28:52;;;;;;;31.92;18.65;;;6.70;99.90;;;;;;6247047;23;20081;-92
2021/10/13 00:31:40;;;;;;;32.75;18.40;;;6.70;99.90;;;;;;6248392;23;20044;-93
2021/10/13 00:34:27;;;;;;;24.67;17.17;;;6.60;99.90;;;;;;6226177;23;20463;-92
2021/10/13 00:37:19;;;;;;;26.23;16.70;;;6.50;99.90;;;;;;6222614;23;20031;-93
2021/10/13 00:40:07;;;;;;;36.70;17.93;;;6.40;99.90;;;;;;6224022;23;20113;-92
2021/10/13 00:42:54;;;;;;;35.42;18.33;;;6.30;99.90;;;;;;6245739;23;20031;-92
2021/10/13 00:45:49;;;;;;;31.75;18.77;;;6.20;99.90;;;;;;6222076;23;20027;-91
2021/10/13 00:48:39;;;;;;;31.08;17.88;;;6.10;99.90;;;;;;6221848;23;20051;-91
2021/10/13 00:51:26;;;;;;;31.17;17.25;;;6.00;99.90;;;;;;6244828;23;20024;-92
2021/10/13 00:54:13;;;;;;;29.00;18.83;;;5.90;99.90;;;;;;6184642;23;20020;-91
2021/10/13 00:57:00;;;;;;;37.63;19.63;;;5.80;99.90;;;;;;6222885;23;20113;-92
2021/10/13 00:59:48;;;;;;;33.17;19.88;;;5.70;99.90;;;;;;6242575;23;20317;-93
2021/10/13 01:02:41;;;;;;;40.38;20.63;;;5.60;99.90;;;;;;6223247;23;20106;-92
2021/10/13 01:06:04;;;;;;;36.25;20.13;;;5.60;99.90;;;;;;6222720;23;20024;-92
2021/10/13 01:09:01;;;;;;;42.15;21.77;;;5.70;99.90;;;;;;6244077;23;20020;-92
2021/10/13 01:12:10;;;;;;;38.53;21.08;;;5.80;99.90;;;;;;6224885;23;20032;-92
2021/10/13 01:15:13;;;;;;;45.75;23.75;;;5.80;99.90;;;;;;6243710;23;20181;-92
2021/10/13 01:18:30;;;;;;;49.47;24.38;;;5.90;99.90;;;;;;6245300;23;20051;-92
2021/10/13 01:21:47;;;;;;;54.08;24.48;;;6.10;99.90;;;;;;6244951;23;20032;-93
2021/10/13 01:24:56;;;;;;;53.50;24.98;;;6.10;99.90;;;;;;6246089;23;20776;-91
2021/10/13 01:28:05;;;;;;;49.10;24.90;;;6.10;99.90;;;;;;6244929;23;20051;-93
2021/10/13 01:31:18;;;;;;;50.13;25.60;;;6.10;99.90;;;;;;6244761;23;20028;-91
2021/10/13 01:34:07;;;;;;;;;;;6.10;99.90;;;;;;6245226;23;20099;-93
2021/10/13 01:37:05;;;;;;;49.85;24.92;;;6.10;99.90;;;;;;6226262;23;19915;-93
2021/10/13 01:39:55;;;;;;;45.60;23.48;;;6.10;99.90;;;;;;6246842;23;20479;-92
2021/10/13 01:42:46;;;;;;;44.38;23.65;;;6.10;99.90;;;;;;6225017;23;20060;-92
2021/10/13 01:45:33;;;;;;;41.08;20.85;;;6.10;99.90;;;;;;6245453;23;20119;-92
2021/10/13 01:48:22;;;;;;;35.28;20.17;;;6.10;99.90;;;;;;6229908;23;20024;-92
2021/10/13 01:51:11;;;;;;;35.13;19.85;;;6.00;99.90;;;;;;6256972;23;20051;-92
2021/10/13 01:54:01;;;;;;;36.47;19.35;;;6.00;99.90;;;;;;6233531;23;20020;-92
2021/10/13 01:56:49;;;;;;;36.22;17.92;;;5.90;99.90;;;;;;6251931;23;20055;-92
2021/10/13 01:59:40;;;;;;;33.17;18.35;;;6.00;99.90;;;;;;6253970;23;20066;-91
2021/10/13 02:02:29;;;;;;;36.38;18.08;;;5.90;99.90;;;;;;6230951;23;20032;-92
2021/10/13 02:05:19;;;;;;;30.13;18.95;;;5.90;99.90;;;;;;6245992;23;20024;-92
2021/10/13 02:08:08;;;;;;;33.58;17.88;;;6.00;99.90;;;;;;6201329;23;20028;-93
2021/10/13 02:11:04;;;;;;;40.97;19.05;;;6.00;99.90;;;;;;6245308;23;20028;-93
2021/10/13 02:13:53;;;;;;;38.70;19.80;;;5.90;99.90;;;;;;6245718;23;20121;-93
2021/10/13 02:16:46;;;;;;;38.53;19.30;;;6.00;99.90;;;;;;6215659;23;20036;-94
2021/10/13 02:19:36;;;;;;;30.15;18.17;;;6.00;99.90;;;;;;6216297;23;20039;-92
2021/10/13 02:22:30;;;;;;;42.78;18.38;;;6.00;99.90;;;;;;6217152;23;20341;-92
2021/10/13 02:25:18;;;;;;;31.75;17.95;;;5.90;99.90;;;;;;6216659;23;20029;-93
2021/10/13 02:28:11;;;;;;;29.17;16.38;;;6.00;99.90;;;;;;6216142;23;20143;-94
2021/10/13 02:31:00;;;;;;;34.88;17.77;;;5.90;99.90;;;;;;6194834;23;20130;-91
2021/10/13 02:33:47;;;;;;;34.63;18.02;;;5.90;99.90;;;;;;6195243;23;20025;-92
2021/10/13 02:36:37;;;;;;;28.83;17.63;;;5.90;99.90;;;;;;6194917;23;20025;-92
2021/10/13 02:39:24;;;;;;;28.42;18.42;;;5.90;99.90;;;;;;6216147;23;20028;-93
2021/10/13 02:42:14;;;;;;;30.67;17.48;;;5.90;99.90;;;;;;6195515;23;20067;-92
2021/10/13 02:45:05;;;;;;;29.70;17.08;;;5.90;99.90;;;;;;6215840;23;20071;-93
2021/10/13 02:48:00;;;;;;;33.72;16.85;;;5.80;99.90;;;;;;6214459;23;20064;-92
2021/10/13 02:50:59;;;;;;;28.65;18.13;;;5.90;99.90;;;;;;6215950;23;20044;-92
2021/10/13 02:53:48;;;;;;;34.88;17.85;;;5.90;99.90;;;;;;6215921;23;20029;-92
2021/10/13 02:56:40;;;;;;;36.67;18.40;;;6.00;99.90;;;;;;6214410;23;20024;-92
2021/10/13 02:59:36;;;;;;;35.83;19.38;;;6.00;99.90;;;;;;6217211;23;20118;-91
2021/10/13 03:02:25;;;;;;;32.53;17.90;;;5.90;99.90;;;;;;6217064;23;20335;-91
2021/10/13 03:05:17;;;;;;;32.53;19.75;;;5.90;99.90;;;;;;6215646;23;20360;-92
2021/10/13 03:08:11;;;;;;;39.95;21.83;;;6.00;99.90;;;;;;6217964;23;20028;-93
2021/10/13 03:11:01;;;;;;;39.20;23.48;;;5.90;99.90;;;;;;6214406;23;20400;-91
2021/10/13 03:13:52;;;;;;;46.75;23.88;;;6.00;99.90;;;;;;6215914;23;20016;-90
2021/10/13 03:16:42;;;;;;;48.88;24.40;;;5.90;99.90;;;;;;6215880;23;20028;-91
2021/10/13 03:19:34;;;;;;;41.88;22.83;;;5.90;99.90;;;;;;6195243;23;20024;-91
2021/10/13 03:22:30;;;;;;;39.35;22.27;;;5.90;99.90;;;;;;6215336;23;20108;-92
2021/10/13 03:25:28;;;;;;;38.72;22.23;;;5.90;99.90;;;;;;6218072;23;20036;-92
2021/10/13 03:28:18;;;;;;;41.47;23.05;;;5.90;99.90;;;;;;6214635;23;20103;-94
2021/10/13 03:31:08;;;;;;;39.72;21.75;;;5.90;99.90;;;;;;6194053;23;20082;-92
2021/10/13 03:33:55;;;;;;;38.67;21.90;;;5.90;99.90;;;;;;6215755;23;20106;-91
2021/10/13 03:36:46;;;;;;;37.55;22.17;;;5.80;99.90;;;;;;6213797;23;20020;-92
2021/10/13 03:39:35;;;;;;;39.13;21.70;;;5.80;99.90;;;;;;6213824;23;20106;-93
2021/10/13 03:42:23;;;;;;;37.20;22.00;;;5.80;99.90;;;;;;6191324;23;20044;-91
2021/10/13 03:45:18;;;;;;;36.70;21.33;;;5.80;99.90;;;;;;6214049;23;20031;-92
2021/10/13 03:48:08;;;;;;;41.03;21.23;;;5.90;99.90;;;;;;6215914;23;20073;-91
2021/10/13 03:50:56;;;;;;;39.10;21.42;;;5.90;99.90;;;;;;6155034;23;20047;-87
2021/10/13 03:53:45;;;;;;;42.30;22.35;;;5.90;99.90;;;;;;6192637;23;20032;-89
2021/10/13 03:56:32;;;;;;;37.38;21.80;;;5.90;99.90;;;;;;6212792;23;20067;-88
2021/10/13 03:59:20;;;;;;;43.90;22.00;;;5.90;99.90;;;;;;6192269;23;20123;-89
2021/10/13 04:02:07;;;;;;;43.80;23.27;;;5.90;99.90;;;;;;6170728;23;20039;-89
2021/10/13 04:04:55;;;;;;;44.70;23.65;;;5.90;99.90;;;;;;6214319;23;20108;-88
2021/10/13 04:07:42;;;;;;;43.85;22.95;;;5.90;99.90;;;;;;6213968;23;20372;-88
2021/10/13 04:10:30;;;;;;;42.90;23.30;;;6.00;99.90;;;;;;6213765;23;20415;-89
2021/10/13 04:13:17;;;;;;;43.63;23.98;;;6.00;99.90;;;;;;6190653;23;20108;-89
2021/10/13 04:16:04;;;;;;;52.03;23.00;;;5.90;99.90;;;;;;6215644;23;20020;-89
2021/10/13 04:18:52;;;;;;;44.30;23.95;;;5.90;99.90;;;;;;6243975;23;20042;-89
2021/10/13 04:21:40;;;;;;;41.75;23.30;;;5.90;99.90;;;;;;6219911;23;20096;-89
2021/10/13 04:24:27;;;;;;;39.55;23.20;;;6.00;99.90;;;;;;6200147;23;20034;-87
2021/10/13 04:27:15;;;;;;;52.50;22.70;;;6.00;99.90;;;;;;6223226;23;20152;-90
2021/10/13 04:30:07;;;;;;;41.03;22.23;;;6.00;99.90;;;;;;6219859;23;20022;-88
2021/10/13 04:32:54;;;;;;;43.17;21.65;;;5.90;99.90;;;;;;6200296;23;20031;-86
2021/10/13 04:35:44;;;;;;;49.50;23.30;;;5.90;99.90;;;;;;6246666;23;20478;-86
2021/10/13 04:38:32;;;;;;;43.03;22.45;;;5.90;99.90;;;;;;6201559;23;20359;-89
2021/10/13 04:41:19;;;;;;;37.17;21.40;;;6.00;99.90;;;;;;6223163;23;20059;-88
2021/10/13 04:44:06;;;;;;;48.17;22.70;;;5.90;99.90;;;;;;6243003;23;20024;-86
2021/10/13 04:46:54;;;;;;;50.35;24.27;;;5.90;99.90;;;;;;6222994;23;20020;-85
2021/10/13 04:49:44;;;;;;;43.40;22.33;;;5.90;99.90;;;;;;6221804;23;20107;-86
2021/10/13 04:52:31;;;;;;;54.33;24.67;;;5.90;99.90;;;;;;6242862;23;20024;-86
2021/10/13 04:55:22;;;;;;;59.72;27.85;;;5.90;99.90;;;;;;6219924;23;20027;-85
2021/10/13 04:58:14;;;;;;;56.10;28.52;;;5.90;99.90;;;;;;6221973;23;20018;-85
2021/10/13 05:01:01;;;;;;;46.28;24.58;;;5.90;99.90;;;;;;6240744;23;20107;-85
2021/10/13 05:03:50;;;;;;;50.50;24.58;;;5.90;99.90;;;;;;6243503;23;20030;-85
2021/10/13 05:06:37;;;;;;;47.50;24.55;;;5.90;99.90;;;;;;6218855;23;20435;-85
2021/10/13 05:09:31;;;;;;;49.05;25.63;;;5.90;99.90;;;;;;6242254;23;20020;-84
2021/10/13 05:12:18;;;;;;;49.80;25.27;;;6.00;99.90;;;;;;6241556;23;20024;-84
2021/10/13 05:15:09;;;;;;;43.67;22.70;;;6.00;99.90;;;;;;6242441;23;20020;-85
2021/10/13 05:18:00;;;;;;;51.53;25.13;;;6.00;99.90;;;;;;6243203;23;20447;-87
2021/10/13 05:20:47;;;;;;;59.13;26.40;;;6.00;99.90;;;;;;6219707;23;20057;-85
2021/10/13 05:23:35;;;;;;;45.13;24.15;;;5.90;99.90;;;;;;6241376;23;20024;-86
2021/10/13 05:26:25;;;;;;;46.45;24.50;;;5.90;99.90;;;;;;6241513;23;20090;-85
2021/10/13 05:29:14;;;;;;;45.20;23.98;;;5.90;99.90;;;;;;6242871;23;20056;-86
2021/10/13 05:32:02;;;;;;;47.60;24.92;;;5.90;99.90;;;;;;6199861;23;20035;-85
2021/10/13 05:34:52;;;;;;;44.78;23.40;;;5.80;99.90;;;;;;6241384;23;20092;-86
2021/10/13 05:37:41;;;;;;;55.17;25.73;;;5.80;99.90;;;;;;6220694;23;20082;-86
2021/10/13 05:40:29;;;;;;;48.35;24.95;;;5.70;99.90;;;;;;6242329;23;20028;-86
2021/10/13 05:43:17;;;;;;;49.67;25.25;;;5.70;99.90;;;;;;6221154;23;20024;-84
2021/10/13 05:46:06;;;;;;;57.88;26.20;;;5.70;99.90;;;;;;6241858;23;20055;-85
2021/10/13 05:48:56;;;;;;;54.22;26.40;;;5.70;99.90;;;;;;6191555;23;20040;-85
2021/10/13 05:51:46;;;;;;;48.97;25.65;;;5.60;99.90;;;;;;6255777;23;20036;-85
2021/10/13 05:54:33;;;;;;;57.85;26.33;;;5.60;99.90;;;;;;6251477;23;20035;-87
2021/10/13 05:57:25;;;;;;;51.28;26.75;;;5.60;99.90;;;;;;6244720;23;20109;-86
2021/10/13 06:00:14;;;;;;;55.33;26.58;;;5.60;99.90;;;;;;6245106;23;20027;-87
2021/10/13 06:03:08;;;;;;;58.85;27.95;;;5.60;99.90;;;;;;6205318;23;20020;-89
2021/10/13 06:06:09;;;;;;;63.10;28.73;;;5.60;99.90;;;;;;6227863;23;20024;-88
2021/10/13 06:08:56;;;;;;;59.78;27.77;;;5.60;99.90;;;;;;6246102;23;20339;-89
2021/10/13 06:11:58;;;;;;;63.70;29.13;;;5.60;99.90;;;;;;6192570;23;20100;-88
2021/10/13 06:14:55;;;;;;;58.35;26.90;;;5.60;99.90;;;;;;6246404;23;20415;-89
2021/10/13 06:17:53;;;;;;;60.58;28.90;;;5.70;99.90;;;;;;6224812;23;20027;-90
2021/10/13 06:21:08;;;;;;;58.10;28.33;;;5.70;99.90;;;;;;6247120;23;20419;-89
2021/10/13 06:23:58;;;;;;;53.58;25.77;;;5.80;99.90;;;;;;6226860;23;20280;-89
2021/10/13 06:26:47;;;;;;;52.40;26.90;;;5.90;99.90;;;;;;6228419;23;20035;-89
2021/10/13 06:29:42;;;;;;;48.78;26.67;;;6.00;99.90;;;;;;6248511;23;20035;-89
2021/10/13 06:32:31;;;;;;;52.30;24.52;;;6.00;99.90;;;;;;6241762;23;20032;-89
2021/10/13 06:35:27;;;;;;;;;;;6.10;99.90;;;;;;6245805;23;20052;-89
2021/10/13 06:38:22;;;;;;;43.75;21.88;;;6.10;99.90;;;;;;6244093;23;19984;-90
2021/10/13 06:41:20;;;;;;;38.58;21.10;;;6.20;99.90;;;;;;6246686;23;20094;-91
2021/10/13 06:44:32;;;;;;;36.75;21.70;;;6.30;99.90;;;;;;6226155;23;20515;-90
2021/10/13 06:47:27;;;;;;;38.15;21.23;;;6.40;99.90;;;;;;6244299;23;20024;-90
2021/10/13 06:50:50;;;;;;;36.35;20.52;;;6.40;99.90;;;;;;6225391;23;20039;-90
2021/10/13 06:54:08;;;;;;;;;;;;;;;;;;;;;
2021/10/13 06:57:08;;;;;;;31.38;18.38;;;6.50;99.90;;;;;;6243875;23;20028;-90
2021/10/13 07:00:11;;;;;;;33.97;18.88;;;6.60;99.90;;;;;;6246412;23;20042;-91
2021/10/13 07:03:03;;;;;;;30.13;17.17;;;6.70;99.90;;;;;;6249249;23;20032;-87
2021/10/13 07:05:59;;;;;;;26.60;17.33;;;6.70;99.90;;;;;;6228759;23;20086;-88
2021/10/13 07:08:47;;;;;;;28.58;16.77;;;6.80;99.90;;;;;;6249205;23;20028;-88
2021/10/13 07:11:54;;;;;;;;;;;;;;;;;;;;;
2021/10/13 07:14:51;;;;;;;26.27;16.20;;;6.80;99.90;;;;;;6246827;23;20421;-89
2021/10/13 07:17:45;;;;;;;28.75;15.18;;;7.00;99.90;;;;;;6221786;23;20403;-89
2021/10/13 07:20:32;;;;;;;23.65;14.30;;;7.10;99.90;;;;;;6243689;23;20035;-89
2021/10/13 07:23:58;;;;;;;;;;;;;;;;;;;;;
2021/10/13 07:26:46;;;;;;;26.80;14.18;;;7.10;99.90;;;;;;6210735;23;20050;-88
2021/10/13 07:29:54;;;;;;;;;;;;;;;;;;;;;
2021/10/13 07:36:17;;;;;;;;;;;;;;;;;;;;;
2021/10/13 07:39:06;;;;;;;25.65;13.88;;;7.00;99.90;;;;;;6248807;23;20048;-87
2021/10/13 07:41:54;;;;;;;26.70;14.20;;;7.00;99.90;;;;;;6225198;23;20404;-87
2021/10/13 07:44:42;;;;;;;23.27;13.32;;;7.10;99.90;;;;;;6246054;23;20107;-89
2021/10/13 07:47:33;;;;;;;22.15;14.75;;;7.20;99.90;;;;;;6223489;23;20051;-87
2021/10/13 07:50:25;;;;;;;23.27;14.07;;;7.40;99.90;;;;;;6225758;23;20024;-88
2021/10/13 07:53:39;;;;;;;18.13;13.80;;;7.80;99.90;;;;;;6225662;23;20035;-87
2021/10/13 07:56:29;;;;;;;19.83;12.68;;;8.30;99.90;;;;;;6246157;23;20032;-89
2021/10/13 07:59:21;;;;;;;18.73;9.88;;;9.30;99.90;;;;;;6244156;23;20387;-89
2021/10/13 08:02:27;;;;;;;13.02;9.35;;;10.30;99.90;;;;;;6244189;23;20032;-87
2021/10/13 08:05:18;;;;;;;17.73;8.65;;;11.00;99.90;;;;;;6222191;23;20326;-88
2021/10/13 08:08:08;;;;;;;11.68;7.45;;;11.20;99.90;;;;;;6246285;23;20094;-90
2021/10/13 08:10:56;;;;;;;13.85;7.80;;;11.30;99.90;;;;;;6204693;23;20025;-89
2021/10/13 08:13:44;;;;;;;14.45;8.07;;;11.20;99.90;;;;;;6224502;23;20028;-89
2021/10/13 08:16:33;;;;;;;12.60;8.15;;;10.90;99.90;;;;;;6223518;23;20126;-85
2021/10/13 08:19:28;;;;;;;11.75;8.23;;;10.40;99.90;;;;;;6245948;23;20457;-85
2021/10/13 08:22:24;;;;;;;16.55;9.02;;;10.30;99.90;;;;;;6246153;23;20024;-85
2021/10/13 08:25:12;;;;;;;15.82;8.13;;;10.50;99.90;;;;;;6247349;23;20386;-86
2021/10/13 08:28:01;;;;;;;15.20;7.95;;;10.50;99.90;;;;;;6246271;23;20051;-85
2021/10/13 08:30:48;;;;;;;19.13;8.05;;;10.40;99.90;;;;;;6220499;23;20416;-85
2021/10/13 08:33:36;;;;;;;15.35;8.93;;;10.10;99.90;;;;;;6222552;23;20027;-85
2021/10/13 08:36:25;;;;;;;16.92;7.75;;;9.70;99.90;;;;;;6243418;23;20031;-86
2021/10/13 08:39:14;;;;;;;17.88;7.55;;;9.60;99.90;;;;;;6224212;23;20051;-85
2021/10/13 08:42:02;;;;;;;25.30;9.18;;;9.50;99.90;;;;;;6244069;23;20035;-85
2021/10/13 08:44:49;;;;;;;11.90;7.25;;;9.70;99.90;;;;;;6222336;23;20051;-85
2021/10/13 08:47:38;;;;;;;10.95;6.32;;;9.90;99.90;;;;;;6245032;23;20395;-85
2021/10/13 08:50:27;;;;;;;12.90;7.35;;;10.10;99.90;;;;;;6250279;23;20078;-88
2021/10/13 08:53:24;;;;;;;13.73;7.20;;;10.40;99.90;;;;;;6225552;23;20021;-87
2021/10/13 08:56:12;;;;;;;11.45;6.30;;;10.80;99.90;;;;;;6255463;23;20078;-87
2021/10/13 08:59:01;;;;;;;9.60;5.95;;;11.40;99.90;;;;;;6255800;23;20115;-85
2021/10/13 09:01:49;;;;;;;12.48;7.22;;;11.40;99.90;;;;;;6235912;23;20380;-85
2021/10/13 09:04:37;;;;;;;12.15;6.53;;;12.10;99.90;;;;;;6255692;23;20355;-87
2021/10/13 09:07:24;;;;;;;10.43;5.22;;;13.00;99.90;;;;;;6235765;23;20032;-86
2021/10/13 09:10:11;;;;;;;7.35;4.20;;;14.20;99.90;;;;;;6258252;23;20028;-86
2021/10/13 09:13:04;;;;;;;7.28;4.20;;;15.30;98.10;;;;;;6260876;23;20031;-86
2021/10/13 09:15:57;;;;;;;8.77;4.85;;;15.80;96.60;;;;;;6266179;23;20012;-87
2021/10/13 09:19:02;;;;;;;12.20;4.68;;;17.10;91.10;;;;;;6233703;23;20262;-88
2021/10/13 09:22:00;;;;;;;6.35;3.38;;;18.10;83.90;;;;;;6214518;23;20028;-88
2021/10/13 09:24:52;;;;;;;6.15;3.50;;;17.70;78.80;;;;;;6245035;23;20024;-87
2021/10/13 09:27:46;;;;;;;11.02;3.53;;;16.40;82.30;;;;;;6247345;23;20027;-87
2021/10/13 09:30:41;;;;;;;4.90;3.20;;;15.40;86.50;;;;;;6224575;23;20335;-89
2021/10/13 09:33:31;;;;;;;3.45;2.30;;;14.90;89.70;;;;;;6248732;23;20024;-89
2021/10/13 09:36:23;;;;;;;7.47;2.92;;;14.10;92.50;;;;;;6186530;23;20123;-89
2021/10/13 09:39:15;;;;;;;3.63;2.28;;;13.40;92.50;;;;;;6225460;23;20376;-89
2021/10/13 09:42:12;;;;;;;5.82;2.90;;;13.10;94.70;;;;;;6250509;23;20024;-90
2021/10/13 09:45:11;;;;;;;8.02;4.93;;;13.00;97.50;;;;;;6248134;23;20129;-89
2021/10/13 09:48:08;;;;;;;9.70;7.05;;;12.50;99.90;;;;;;6227054;23;20099;-89
2021/10/13 09:50:59;;;;;;;14.73;7.95;;;12.00;99.90;;;;;;6228113;23;20032;-89
2021/10/13 09:53:51;;;;;;;15.82;8.07;;;11.60;99.90;;;;;;6224661;23;20052;-89
2021/10/13 09:56:46;;;;;;;13.88;7.00;;;11.00;99.90;;;;;;6247948;23;20304;-89
2021/10/13 09:59:34;;;;;;;16.90;8.40;;;10.40;99.90;;;;;;6247619;23;20039;-91
2021/10/13 10:02:46;;;;;;;16.73;7.72;;;10.00;99.90;;;;;;6209643;23;20028;-89
2021/10/13 10:05:42;;;;;;;16.45;8.63;;;9.70;99.90;;;;;;6227050;23;20100;-90
2021/10/13 10:08:56;;;;;;;12.60;7.07;;;9.60;99.90;;;;;;6247115;23;20516;-90
2021/10/13 10:11:57;;;;;;;;;;;;;;;;;;;;;
2021/10/13 10:15:43;;;;;;;14.65;6.15;;;9.20;99.90;;;;;;6243420;23;20028;-90
2021/10/13 10:18:45;;;;;;;;;;;;;;;;;;;;;
2021/10/13 10:22:14;;;;;;;8.80;5.82;;;9.50;99.90;;;;;;6246446;23;20051;-90
2021/10/13 10:25:09;;;;;;;10.70;5.40;;;9.80;99.90;;;;;;6224588;23;20118;-89
2021/10/13 10:28:54;;;;;;;8.68;4.32;;;11.20;99.90;;;;;;6240365;23;20074;-89
2021/10/13 10:32:19;;;;;;;7.47;4.28;;;13.50;99.90;;;;;;6247702;22;20042;-89
2021/10/13 10:35:52;;;;;;;;;;;;;;;;;;;;;
2021/10/13 10:39:12;;;;;;;7.13;4.38;;;15.60;96.90;;;;;;6131918;23;20029;-90
2021/10/13 10:42:08;;;;;;;7.20;3.70;;;16.70;95.90;;;;;;6134535;23;20049;-91
2021/10/13 10:45:55;;;;;;;6.90;3.05;;;18.20;88.00;;;;;;5973095;24;20090;-92
2021/10/13 10:49:05;;;;;;;4.95;2.85;;;19.20;74.40;;;;;;5831639;24;20108;-90
2021/10/13 10:52:32;;;;;;;10.98;4.22;;;18.50;76.00;;;;;;5872909;24;20139;-91
2021/10/13 10:56:09;;;;;;;;;;;;;;;;;;;;;
2021/10/13 10:59:52;;;;;;;;;;;;;;;;;;;;;
2021/10/13 11:03:25;;;;;;;5.45;1.58;;;20.10;70.20;;;;;;5982836;24;20407;-90
2021/10/13 11:06:24;;;;;;;2.35;1.00;;;21.50;56.70;;;;;;6024547;23;20121;-89
2021/10/13 11:09:34;;;;;;;7.88;2.13;;;22.10;50.90;;;;;;6157296;23;20024;-90
2021/10/13 11:12:58;;;;;;;2.53;0.60;;;21.30;51.60;;;;;;6221670;23;20063;-89
2021/10/13 11:15:45;;;;;;;4.55;0.93;;;20.50;52.20;;;;;;6222355;23;20031;-90
2021/10/13 11:18:39;;;;;;;2.47;0.77;;;19.40;56.80;;;;;;6245320;23;20024;-89
2021/10/13 11:21:36;;;;;;;3.08;1.00;;;18.30;58.50;;;;;;6223028;23;20031;-91
2021/10/13 11:25:20;;;;;;;3.05;1.15;;;17.40;59.70;;;;;;6246543;23;20024;-91
2021/10/13 11:28:14;;;;;;;2.85;0.88;;;16.20;62.20;;;;;;6206409;23;20411;-90
2021/10/13 11:31:11;;;;;;;3.70;0.80;;;15.40;69.20;;;;;;6225461;23;20059;-91
2021/10/13 11:34:19;;;;;;;3.63;1.17;;;14.90;71.30;;;;;;6221829;23;20074;-90
2021/10/13 11:37:11;;;;;;;3.88;1.30;;;14.10;76.70;;;;;;6206679;23;20020;-90
2021/10/13 11:40:29;;;;;;;1.58;1.02;;;13.10;87.30;;;;;;6226750;23;20384;-90
2021/10/13 11:43:18;;;;;;;4.32;1.40;;;12.30;93.30;;;;;;6220714;23;20035;-91
2021/10/13 11:46:15;;;;;;;5.38;1.58;;;11.80;99.90;;;;;;6222725;23;20038;-88
2021/10/13 11:49:09;;;;;;;5.43;1.63;;;11.60;99.90;;;;;;6224655;23;20039;-87
2021/10/13 11:52:29;;;;;;;6.57;1.52;;;11.80;99.90;;;;;;6223680;23;20028;-88
2021/10/13 11:55:32;;;;;;;;;;;;;;;;;;;;;
2021/10/13 11:58:38;;;;;;;2.83;1.25;;;13.10;99.90;;;;;;6252560;23;20068;-89
2021/10/13 12:01:46;;;;;;;;;;;;;;;;;;;;;
2021/10/13 12:04:53;;;;;;;1.92;0.65;;;13.80;94.90;;;;;;6252050;23;20024;-88
2021/10/13 12:07:49;;;;;;;5.20;0.85;;;15.20;90.00;;;;;;6231413;23;20043;-88
2021/10/13 12:10:50;;;;;;;2.40;0.70;;;16.30;84.40;;;;;;6213626;23;20042;-87
2021/10/13 12:13:48;;;;;;;1.60;0.60;;;17.70;75.00;;;;;;6225905;23;20020;-89
2021/10/13 12:16:59;;;;;;;2.15;0.60;;;18.00;68.90;;;;;;6231313;23;20024;-87
2021/10/13 12:20:02;;;;;;;1.23;0.60;;;17.80;67.80;;;;;;6245159;23;20114;-88
2021/10/13 12:23:23;;;;;;;0.90;0.37;;;17.90;66.70;;;;;;6201240;23;20024;-88
2021/10/13 12:26:23;;;;;;;0.43;0.40;;;18.50;65.30;;;;;;6244054;23;20024;-90
2021/10/13 12:29:13;;;;;;;0.80;0.50;;;17.80;62.70;;;;;;6225582;23;20051;-87
2021/10/13 12:32:22;;;;;;;1.05;0.52;;;17.30;64.50;;;;;;6244948;23;20058;-87
2021/10/13 12:35:15;;;;;;;2.03;0.68;;;16.20;66.50;;;;;;6248955;23;20112;-88
2021/10/13 12:38:12;;;;;;;1.67;0.80;;;15.30;72.10;;;;;;6222575;23;20419;-86
2021/10/13 12:41:09;;;;;;;2.25;0.50;;;14.60;75.50;;;;;;6223042;23;20115;-88
2021/10/13 12:43:57;;;;;;;0.80;0.50;;;14.30;73.70;;;;;;6242021;23;20447;-88
2021/10/13 12:46:57;;;;;;;0.50;0.50;;;14.10;77.60;;;;;;6229377;23;20063;-88
2021/10/13 12:50:20;;;;;;;0.45;0.45;;;14.40;76.90;;;;;;6259233;23;20028;-90
2021/10/13 12:53:31;;;;;;;2.03;0.73;;;14.80;76.60;;;;;;6237194;23;20044;-88
2021/10/13 12:56:21;;;;;;;0.80;0.60;;;14.50;77.70;;;;;;6244775;23;20034;-89
2021/10/13 12:59:33;;;;;;;1.42;0.60;;;14.20;76.20;;;;;;6248120;23;20024;-89
2021/10/13 13:02:23;;;;;;;3.13;0.82;;;14.00;76.50;;;;;;6187728;23;20178;-87
2021/10/13 13:05:20;;;;;;;2.78;0.88;;;13.70;79.20;;;;;;6249810;23;20673;-90
2021/10/13 13:08:07;;;;;;;1.23;0.65;;;13.30;80.90;;;;;;6225849;23;20028;-90
2021/10/13 13:10:54;;;;;;;1.63;0.65;;;13.00;85.00;;;;;;6224378;23;20071;-90
2021/10/13 13:13:41;;;;;;;2.08;0.90;;;12.70;88.10;;;;;;6226279;23;20028;-89
2021/10/13 13:16:29;;;;;;;1.48;0.95;;;12.80;87.60;;;;;;6214477;23;20025;-89
2021/10/13 13:19:18;;;;;;;1.63;0.80;;;13.10;87.10;;;;;;6193750;23;20091;-88
2021/10/13 13:22:06;;;;;;;3.20;0.90;;;14.30;87.30;;;;;;6217480;23;20024;-90
2021/10/13 13:24:56;;;;;;;2.55;1.02;;;17.00;74.10;;;;;;6225683;23;20028;-90
2021/10/13 13:27:46;;;;;;;2.33;0.90;;;19.30;63.30;;;;;;6174909;23;20068;-89
2021/10/13 13:30:35;;;;;;;2.53;1.00;;;21.00;55.60;;;;;;6213544;23;20098;-87
2021/10/13 13:33:23;;;;;;;2.53;0.77;;;21.60;53.30;;;;;;6172789;23;20043;-87
2021/10/13 13:36:16;;;;;;;1.88;0.90;;;23.10;49.40;;;;;;6221996;23;20300;-88
2021/10/13 13:39:03;;;;;;;4.35;0.70;;;24.30;44.50;;;;;;6214424;23;20021;-87
2021/10/13 13:41:53;;;;;;;3.30;0.88;;;23.20;45.30;;;;;;6214857;23;20024;-86
2021/10/13 13:44:40;;;;;;;1.67;0.60;;;23.60;44.50;;;;;;6190937;23;20082;-87
2021/10/13 13:47:27;;;;;;;4.70;0.85;;;23.10;46.70;;;;;;6197447;23;20361;-89
2021/10/13 13:50:15;;;;;;;1.55;0.60;;;22.60;46.50;;;;;;6214719;23;20033;-89
2021/10/13 13:53:03;;;;;;;4.32;1.02;;;22.60;45.90;;;;;;6194826;23;20312;-86
2021/10/13 13:55:54;;;;;;;2.47;0.80;;;20.90;52.60;;;;;;6212754;23;20020;-86
2021/10/13 13:58:41;;;;;;;1.52;0.90;;;18.40;61.50;;;;;;6198597;23;20036;-87
2021/10/13 14:01:29;;;;;;;1.65;1.00;;;16.30;67.60;;;;;;6213881;23;20028;-86
2021/10/13 14:04:16;;;;;;;5.63;1.40;;;14.90;74.50;;;;;;6213336;23;20032;-86
2021/10/13 14:07:04;;;;;;;5.90;1.80;;;13.50;85.90;;;;;;6210978;23;20029;-86
2021/10/13 14:09:51;;;;;;;5.25;1.70;;;12.60;91.60;;;;;;6214687;23;20024;-85
2021/10/13 14:12:39;;;;;;;3.33;1.67;;;12.10;98.40;;;;;;6217515;23;20033;-87
2021/10/13 14:15:26;;;;;;;4.50;1.95;;;11.70;99.90;;;;;;6211543;23;20024;-87
2021/10/13 14:18:13;;;;;;;6.45;1.88;;;11.40;99.90;;;;;;6226345;23;20062;-87
2021/10/13 14:21:02;;;;;;;7.22;2.50;;;11.30;99.90;;;;;;6244303;23;20028;-88
2021/10/13 14:23:50;;;;;;;4.68;1.92;;;11.20;99.90;;;;;;6246873;23;20327;-84
2021/10/13 14:26:37;;;;;;;5.63;1.80;;;11.10;99.90;;;;;;6245082;23;20044;-86
2021/10/13 14:29:28;;;;;;;4.30;2.05;;;11.20;99.90;;;;;;6245125;23;20028;-85
2021/10/13 14:32:18;;;;;;;3.65;1.90;;;11.40;99.90;;;;;;6244838;23;20284;-85
2021/10/13 14:35:06;;;;;;;2.97;1.75;;;11.60;99.90;;;;;;6222149;23;20082;-85
2021/10/13 14:37:56;;;;;;;6.40;2.17;;;11.80;99.90;;;;;;6223072;23;20020;-87
2021/10/13 14:40:44;;;;;;;3.80;2.22;;;12.10;99.90;;;;;;6242983;23;20024;-85
2021/10/13 14:43:32;;;;;;;5.45;1.85;;;12.00;99.90;;;;;;6246763;23;20378;-87
2021/10/13 14:46:20;;;;;;;6.13;2.45;;;12.00;99.90;;;;;;6243361;23;20024;-85
2021/10/13 14:49:10;;;;;;;7.63;2.17;;;11.90;99.90;;;;;;6246505;23;20093;-86
2021/10/13 14:51:58;;;;;;;5.88;2.10;;;11.80;99.90;;;;;;6222344;23;20043;-88
2021/10/13 14:54:47;;;;;;;2.70;1.85;;;11.80;99.90;;;;;;6244669;23;20584;-86
2021/10/13 14:57:38;;;;;;;6.43;1.90;;;11.70;99.90;;;;;;6224560;23;20024;-87
2021/10/13 15:00:25;;;;;;;2.13;1.73;;;11.50;99.90;;;;;;6244421;23;20126;-88
2021/10/13 15:03:12;;;;;;;4.57;1.85;;;11.40;99.90;;;;;;6244694;23;20047;-86
2021/10/13 15:06:01;;;;;;;5.03;2.03;;;11.20;99.90;;;;;;6223132;23;20047;-88
2021/10/13 15:08:48;;;;;;;4.13;2.20;;;11.10;99.90;;;;;;6221686;23;20035;-88
2021/10/13 15:11:36;;;;;;;3.65;2.20;;;11.00;99.90;;;;;;6243028;23;20035;-87
2021/10/13 15:14:24;;;;;;;4.05;2.22;;;10.90;99.90;;;;;;6246295;23;20031;-87
2021/10/13 15:17:11;;;;;;;3.55;1.70;;;10.90;99.90;;;;;;6222318;23;20344;-87
2021/10/13 15:20:00;;;;;;;2.60;1.73;;;10.70;99.90;;;;;;6245670;23;20431;-84
2021/10/13 15:23:06;;;;;;;2.65;1.58;;;10.70;99.90;;;;;;6244253;23;20078;-84